Time;durP1;ratioP1;P1;durP2;ratioP2;P2;SDS_P1;SDS_P2;PMS_P1;PMS_P2;Temp;Humidity;BMP_temperature;BMP_pressure;BME280_temperature;BME280_humidity;BME280_pressure;Samples;Min_cycle;Max_cycle;Signal;HPM_P1;HPM_P2
2022/08/11 00:00:07;;;;;;;5.95;2.60;;;26.10;99.90;;;;;;1826568;77;21167;-69
2022/08/11 00:02:41;;;;;;;6.17;2.85;;;26.10;99.90;;;;;;1832869;76;21757;-70
2022/08/11 00:05:15;;;;;;;4.97;2.85;;;26.20;99.90;;;;;;1824347;76;21097;-69
2022/08/11 00:07:48;;;;;;;6.50;3.35;;;26.10;99.90;;;;;;1824604;77;21246;-69
2022/08/11 00:10:21;;;;;;;7.60;2.50;;;26.20;99.90;;;;;;1793165;78;21198;-69
2022/08/11 00:12:56;;;;;;;5.97;2.90;;;26.20;99.90;;;;;;1803765;78;21174;-70
2022/08/11 00:15:30;;;;;;;5.83;3.17;;;26.20;99.90;;;;;;1834120;77;22288;-70
2022/08/11 00:18:02;;;;;;;5.97;2.77;;;26.20;99.90;;;;;;1852889;76;21615;-69
2022/08/11 00:20:36;;;;;;;5.97;2.85;;;26.20;99.90;;;;;;1833357;77;21168;-69
2022/08/11 00:23:09;;;;;;;6.60;2.70;;;26.20;99.90;;;;;;1836488;77;21150;-69
2022/08/11 00:25:42;;;;;;;4.70;2.77;;;26.20;99.90;;;;;;1835581;77;21132;-70
2022/08/11 00:28:16;;;;;;;5.25;2.62;;;26.20;99.90;;;;;;1838104;77;21273;-69
2022/08/11 00:30:47;;;;;;;7.35;2.67;;;26.20;99.90;;;;;;1793272;78;21721;-70
2022/08/11 00:33:20;;;;;;;5.87;3.20;;;26.20;99.90;;;;;;1837600;77;21150;-70
2022/08/11 00:35:56;;;;;;;4.83;2.72;;;26.20;99.90;;;;;;1828252;78;21093;-69
2022/08/11 00:38:29;;;;;;;5.15;2.70;;;26.20;99.90;;;;;;1869647;75;21188;-70
2022/08/11 00:41:02;;;;;;;12.53;3.70;;;26.30;99.90;;;;;;1866473;75;21165;-69
2022/08/11 00:43:36;;;;;;;6.00;3.12;;;26.30;99.90;;;;;;1861549;75;21098;-70
2022/08/11 00:46:09;;;;;;;7.33;2.90;;;26.30;99.90;;;;;;1824048;78;21138;-69
2022/08/11 00:48:43;;;;;;;10.38;2.90;;;26.30;99.90;;;;;;1834623;77;21230;-69
2022/08/11 00:51:16;;;;;;;8.95;3.12;;;26.40;99.90;;;;;;1828024;77;21427;-69
2022/08/11 00:53:49;;;;;;;6.97;3.60;;;26.40;99.90;;;;;;1847353;77;21190;-70
2022/08/11 00:56:22;;;;;;;6.40;2.95;;;26.40;99.90;;;;;;1859584;76;21200;-70
2022/08/11 00:59:01;;;;;;;6.10;3.30;;;26.40;99.90;;;;;;1855844;76;21202;-70
2022/08/11 01:01:36;;;;;;;4.55;2.80;;;26.40;99.90;;;;;;1826819;77;21171;-69
2022/08/11 01:04:10;;;;;;;8.28;3.40;;;26.50;99.90;;;;;;1810478;78;22185;-70
2022/08/11 01:06:43;;;;;;;7.83;3.20;;;26.50;99.90;;;;;;1851053;76;21195;-69
2022/08/11 01:09:16;;;;;;;5.90;3.27;;;26.50;99.90;;;;;;1852393;76;21073;-69
2022/08/11 01:11:51;;;;;;;6.60;3.25;;;26.50;99.90;;;;;;1857483;77;21536;-69
2022/08/11 01:14:25;;;;;;;8.33;3.10;;;26.60;99.90;;;;;;1865004;75;21112;-69
2022/08/11 01:17:00;;;;;;;7.85;3.35;;;26.70;99.90;;;;;;1852305;77;21179;-69
2022/08/11 01:19:33;;;;;;;5.25;2.85;;;26.70;99.90;;;;;;1860659;76;21625;-69
2022/08/11 01:22:08;;;;;;;5.58;2.98;;;26.70;99.90;;;;;;1868727;75;21128;-70
2022/08/11 01:24:41;;;;;;;8.30;3.40;;;26.70;99.90;;;;;;1856590;77;21145;-70
2022/08/11 01:27:16;;;;;;;5.60;3.33;;;26.80;99.90;;;;;;1847901;77;21140;-70
2022/08/11 01:29:51;;;;;;;5.90;2.80;;;26.80;99.90;;;;;;1859687;76;21647;-70
2022/08/11 01:32:26;;;;;;;10.32;3.05;;;26.80;99.90;;;;;;1850731;76;21690;-70
2022/08/11 01:35:00;;;;;;;5.05;2.70;;;26.90;99.90;;;;;;1868339;76;21172;-69
2022/08/11 01:37:33;;;;;;;5.47;3.00;;;26.90;99.90;;;;;;1848632;76;21065;-69
2022/08/11 01:40:07;;;;;;;5.20;2.90;;;27.00;99.90;;;;;;1850951;77;21244;-70
2022/08/11 01:45:14;;;;;;;6.50;3.10;;;27.10;99.90;;;;;;1847799;77;21169;-69
2022/08/11 01:47:50;;;;;;;4.35;2.62;;;27.10;99.90;;;;;;1839625;77;21713;-69
2022/08/11 01:50:25;;;;;;;5.72;2.77;;;27.20;99.90;;;;;;1853087;77;21175;-69
2022/08/11 01:52:59;;;;;;;8.28;3.80;;;27.20;99.90;;;;;;1852080;77;21619;-69
2022/08/11 01:55:33;;;;;;;8.30;3.47;;;27.30;99.90;;;;;;1853999;76;21741;-70
2022/08/11 01:58:07;;;;;;;5.75;2.77;;;27.30;99.90;;;;;;1849881;77;22316;-69
2022/08/11 02:00:42;;;;;;;6.97;2.52;;;27.40;99.90;;;;;;1855001;77;21919;-70
2022/08/11 02:03:15;;;;;;;6.72;3.00;;;27.50;99.90;;;;;;1837652;77;21210;-70
2022/08/11 02:05:49;;;;;;;6.58;3.08;;;27.60;99.90;;;;;;1830347;78;21683;-69
2022/08/11 02:08:23;;;;;;;8.13;2.90;;;27.70;99.90;;;;;;1786633;80;21689;-69
2022/08/11 02:13:33;;;;;;;5.97;3.10;;;27.80;99.90;;;;;;1828175;78;21254;-70
2022/08/11 02:16:07;;;;;;;5.17;2.70;;;27.80;99.90;;;;;;1806105;78;21297;-69
2022/08/11 02:23:51;;;;;;;5.42;2.90;;;28.00;99.90;;;;;;1818196;78;21199;-69
2022/08/11 02:26:25;;;;;;;8.48;2.55;;;28.00;99.90;;;;;;1808874;79;21238;-71
2022/08/11 02:28:59;;;;;;;6.40;2.60;;;28.10;99.90;;;;;;1802900;78;21917;-70
2022/08/11 02:34:11;;;;;;;9.33;2.53;;;28.10;99.90;;;;;;1775864;80;21761;-70
2022/08/11 02:36:44;;;;;;;5.60;2.80;;;28.20;99.90;;;;;;1812647;79;21242;-71
2022/08/11 02:39:17;;;;;;;7.33;2.67;;;28.20;99.90;;;;;;1809195;78;21221;-70
2022/08/11 02:44:24;;;;;;;6.37;3.10;;;28.30;99.90;;;;;;1808115;79;21231;-70
2022/08/11 02:46:58;;;;;;;8.33;3.00;;;28.20;99.90;;;;;;1810230;78;21201;-70
2022/08/11 02:52:06;;;;;;;5.85;3.08;;;28.30;99.90;;;;;;1811252;79;21190;-70
2022/08/11 02:54:39;;;;;;;5.12;2.37;;;28.40;99.90;;;;;;1815010;78;21640;-70
2022/08/11 02:57:14;;;;;;;10.53;3.47;;;28.40;99.90;;;;;;1816826;78;21707;-69
2022/08/11 02:59:50;;;;;;;7.92;2.62;;;28.50;99.90;;;;;;1782790;80;21174;-70
2022/08/11 03:02:23;;;;;;;6.28;2.70;;;28.50;99.90;;;;;;1815355;79;21095;-69
2022/08/11 03:04:56;;;;;;;7.20;2.60;;;28.50;99.90;;;;;;1777063;80;21256;-69
2022/08/11 03:07:30;;;;;;;5.08;3.05;;;28.50;99.90;;;;;;1807410;79;21657;-70
2022/08/11 03:10:03;;;;;;;5.40;2.20;;;28.50;99.90;;;;;;1808585;79;21118;-70
2022/08/11 03:17:47;;;;;;;7.12;2.90;;;28.60;99.90;;;;;;1829668;77;21182;-70
2022/08/11 03:20:21;;;;;;;6.62;2.77;;;28.60;99.90;;;;;;1806020;79;21258;-70
2022/08/11 03:22:54;;;;;;;6.80;2.70;;;28.60;99.90;;;;;;1807585;79;21201;-69
2022/08/11 03:25:30;;;;;;;7.17;3.08;;;28.60;99.90;;;;;;1814413;77;21256;-70
2022/08/11 03:28:02;;;;;;;4.20;2.70;;;28.60;99.90;;;;;;1817642;77;21689;-70
2022/08/11 03:30:36;;;;;;;5.28;2.72;;;28.60;99.90;;;;;;1807266;79;21634;-70
2022/08/11 03:35:44;;;;;;;6.85;2.77;;;28.70;99.90;;;;;;1805905;79;21158;-70
2022/08/11 03:38:17;;;;;;;5.05;2.52;;;28.70;99.90;;;;;;1825852;77;21605;-69
2022/08/11 03:43:24;;;;;;;6.30;2.77;;;28.80;99.90;;;;;;1798717;79;21617;-69
2022/08/11 03:45:58;;;;;;;9.30;2.95;;;28.80;99.90;;;;;;1813856;77;21168;-70
2022/08/11 03:48:31;;;;;;;6.45;2.60;;;28.90;99.90;;;;;;1807945;79;21165;-70
2022/08/11 03:51:04;;;;;;;6.60;2.85;;;28.90;99.90;;;;;;1806142;79;21602;-69
2022/08/11 03:53:37;;;;;;;4.92;2.92;;;29.00;99.90;;;;;;1809873;78;21171;-69
2022/08/11 03:56:13;;;;;;;6.97;2.80;;;29.00;99.90;;;;;;1805852;79;21483;-69
2022/08/11 03:58:47;;;;;;;8.88;3.12;;;29.00;99.90;;;;;;1804928;79;21509;-70
2022/08/11 04:01:20;;;;;;;8.18;2.50;;;29.10;99.90;;;;;;1807695;79;21797;-71
2022/08/11 04:03:54;;;;;;;4.05;2.60;;;29.10;99.90;;;;;;1806771;79;21119;-70
2022/08/11 04:06:27;;;;;;;8.60;2.83;;;29.10;99.90;;;;;;1806334;79;21157;-70
2022/08/11 04:09:00;;;;;;;6.35;2.62;;;29.20;99.90;;;;;;1809302;79;21583;-70
2022/08/11 04:11:33;;;;;;;6.40;2.60;;;29.20;99.90;;;;;;1805498;79;21231;-70
2022/08/11 04:16:43;;;;;;;6.62;2.58;;;29.30;99.90;;;;;;1818099;77;21211;-70
2022/08/11 04:19:16;;;;;;;3.62;2.00;;;29.30;99.90;;;;;;1836197;76;21147;-69
2022/08/11 04:21:50;;;;;;;8.38;3.17;;;29.40;99.90;;;;;;1827624;78;21599;-69
2022/08/11 04:24:23;;;;;;;5.53;2.90;;;29.50;99.90;;;;;;1832634;78;21103;-70
2022/08/11 04:26:58;;;;;;;6.75;2.77;;;29.60;99.90;;;;;;1828541;77;21124;-70
2022/08/11 04:29:32;;;;;;;6.00;2.30;;;29.60;99.90;;;;;;1847420;76;21240;-70
2022/08/11 04:32:07;;;;;;;4.58;2.35;;;29.70;99.90;;;;;;1831529;76;21250;-70
2022/08/11 04:34:41;;;;;;;4.03;2.22;;;29.70;99.90;;;;;;1839446;76;21108;-69
2022/08/11 04:39:48;;;;;;;6.05;2.37;;;29.60;99.90;;;;;;1831004;77;21778;-70
2022/08/11 04:44:59;;;;;;;5.22;2.70;;;29.60;99.90;;;;;;1838848;76;21061;-70
2022/08/11 05:03:03;;;;;;;4.37;2.55;;;29.40;99.90;;;;;;1840256;76;21163;-69
2022/08/11 05:05:36;;;;;;;8.70;2.85;;;29.40;99.90;;;;;;1839249;76;21175;-70
2022/08/11 05:08:11;;;;;;;6.83;2.60;;;29.40;99.90;;;;;;1839316;76;21229;-70
2022/08/11 05:10:46;;;;;;;5.28;2.25;;;29.50;99.90;;;;;;1820068;77;21283;-70
2022/08/11 05:36:31;;;;;;;3.75;2.50;;;29.70;99.90;;;;;;1839901;77;21204;-70
2022/08/11 05:57:02;;;;;;;4.78;1.95;;;29.80;99.30;;;;;;1839363;78;21184;-70
2022/08/11 05:59:34;;;;;;;5.12;2.20;;;29.90;98.70;;;;;;1836024;78;21623;-71
2022/08/11 06:02:07;;;;;;;6.30;1.80;;;29.90;98.50;;;;;;1839089;78;21237;-70
2022/08/11 06:04:39;;;;;;;6.15;2.05;;;29.90;98.20;;;;;;1836780;78;21663;-70
2022/08/11 06:07:16;;;;;;;5.90;2.22;;;30.00;97.90;;;;;;1839687;78;21552;-71
2022/08/11 06:09:47;;;;;;;5.00;1.60;;;30.10;98.20;;;;;;1843937;76;21844;-71
2022/08/11 06:12:20;;;;;;;5.08;2.47;;;30.10;97.40;;;;;;1840304;76;21652;-70
2022/08/11 06:14:54;;;;;;;5.50;2.10;;;30.20;97.20;;;;;;1837246;76;21100;-71
2022/08/11 06:17:27;;;;;;;4.75;2.30;;;30.20;97.70;;;;;;1831545;77;21176;-70
2022/08/11 06:20:02;;;;;;;5.97;2.47;;;30.30;97.20;;;;;;1846134;77;21129;-69
2022/08/11 06:22:35;;;;;;;5.72;3.02;;;30.30;97.90;;;;;;1847215;77;21180;-70
2022/08/11 06:25:08;;;;;;;4.47;2.20;;;30.30;98.00;;;;;;1850569;77;21063;-70
2022/08/11 06:27:42;;;;;;;4.58;2.20;;;30.40;98.00;;;;;;1828178;78;21106;-70
2022/08/11 06:30:13;;;;;;;5.87;2.67;;;30.50;98.20;;;;;;1827482;77;21651;-70
2022/08/11 06:32:46;;;;;;;7.50;2.00;;;30.50;98.40;;;;;;1827727;78;21667;-70
2022/08/11 06:35:19;;;;;;;4.05;2.02;;;30.60;98.00;;;;;;1828086;78;21876;-69
2022/08/11 06:37:52;;;;;;;5.83;2.30;;;30.60;97.50;;;;;;1850416;77;21121;-70
2022/08/11 06:40:27;;;;;;;5.53;2.10;;;30.50;98.60;;;;;;1833412;77;21181;-70
2022/08/11 06:43:01;;;;;;;5.78;2.80;;;30.60;97.80;;;;;;1859786;77;21533;-69
2022/08/11 06:45:35;;;;;;;4.58;2.45;;;30.50;97.90;;;;;;1824974;78;21126;-70
2022/08/11 06:48:09;;;;;;;4.10;1.92;;;30.50;97.90;;;;;;1828137;78;21201;-69
2022/08/11 06:53:16;;;;;;;4.40;2.20;;;30.30;98.30;;;;;;1848510;77;21137;-70
2022/08/11 07:01:00;;;;;;;4.20;2.20;;;30.20;98.20;;;;;;1824853;78;21578;-70
2022/08/11 07:03:34;;;;;;;5.97;2.40;;;30.20;98.40;;;;;;1851350;77;21552;-69
2022/08/11 07:06:07;;;;;;;6.03;2.37;;;30.20;98.60;;;;;;1848281;77;21747;-69
2022/08/11 07:16:41;;;;;;;6.85;2.65;;;30.30;99.00;;;;;;1855356;76;21125;-70
2022/08/11 07:29:33;;;;;;;5.42;2.17;;;30.30;97.80;;;;;;1839904;78;21496;-70
2022/08/11 07:32:06;;;;;;;8.28;2.55;;;30.30;98.20;;;;;;1845430;76;21155;-70
2022/08/11 07:34:40;;;;;;;3.98;2.05;;;30.30;98.30;;;;;;1861536;76;21054;-70
2022/08/11 07:37:16;;;;;;;5.28;2.22;;;30.40;99.00;;;;;;1855063;76;21144;-70
2022/08/11 07:39:47;;;;;;;5.45;2.42;;;30.40;98.40;;;;;;1850609;76;21169;-70
2022/08/11 07:42:21;;;;;;;5.35;2.20;;;30.30;98.30;;;;;;1847292;76;21686;-70
2022/08/11 07:52:36;;;;;;;4.75;2.22;;;30.30;97.80;;;;;;1857323;76;21145;-70
2022/08/11 07:55:10;;;;;;;5.97;2.50;;;30.30;98.30;;;;;;1858563;76;21095;-69
2022/08/11 08:18:13;;;;;;;5.80;1.70;;;30.70;96.60;;;;;;1844370;76;21179;-70
2022/08/11 08:20:51;;;;;;;5.60;1.90;;;30.60;96.70;;;;;;1837816;76;21630;-72
2022/08/11 08:23:32;;;;;;;5.75;2.02;;;30.60;96.50;;;;;;1847356;77;21613;-70
2022/08/11 08:26:03;;;;;;;4.50;1.80;;;30.60;96.70;;;;;;1846272;77;21221;-70
2022/08/11 08:28:32;;;;;;;4.60;1.55;;;30.60;96.60;;;;;;1839466;76;21635;-71
2022/08/11 08:31:04;;;;;;;6.20;2.25;;;30.60;96.50;;;;;;1844332;76;21141;-70
2022/08/11 08:33:36;;;;;;;10.05;2.50;;;30.60;96.50;;;;;;1845069;76;21589;-71
2022/08/11 08:36:10;;;;;;;3.17;1.57;;;30.60;96.50;;;;;;1838693;77;21223;-69
2022/08/11 08:38:42;;;;;;;5.20;1.67;;;30.60;97.10;;;;;;1840618;78;21790;-69
2022/08/11 08:41:15;;;;;;;4.05;1.80;;;30.60;96.60;;;;;;1812258;79;21172;-69
2022/08/11 08:43:48;;;;;;;5.40;2.05;;;30.60;96.60;;;;;;1825414;78;21235;-69
2022/08/11 08:46:22;;;;;;;4.37;1.80;;;30.60;96.30;;;;;;1826164;78;21535;-70
2022/08/11 08:48:54;;;;;;;4.92;1.80;;;30.60;96.20;;;;;;1826262;78;21101;-70
2022/08/11 08:51:35;;;;;;;3.75;1.70;;;30.60;96.20;;;;;;1814584;79;21256;-70
2022/08/11 08:54:01;;;;;;;4.15;1.80;;;30.60;96.40;;;;;;1812105;79;21119;-70
2022/08/11 08:56:33;;;;;;;6.05;1.80;;;30.60;96.30;;;;;;1817365;77;21129;-70
2022/08/11 08:59:04;;;;;;;4.83;1.60;;;30.60;96.40;;;;;;1788527;80;21160;-70
2022/08/11 09:01:38;;;;;;;5.60;2.05;;;30.50;96.90;;;;;;1829313;78;21060;-70
2022/08/11 09:04:10;;;;;;;3.27;1.60;;;30.50;96.50;;;;;;1826061;78;21604;-70
2022/08/11 09:06:43;;;;;;;7.08;2.00;;;30.50;96.40;;;;;;1815541;78;21148;-71
2022/08/11 09:09:16;;;;;;;5.83;1.80;;;30.50;97.10;;;;;;1813187;79;21200;-69
2022/08/11 09:11:52;;;;;;;6.03;1.92;;;30.50;96.80;;;;;;1826673;78;21661;-69
2022/08/11 09:14:23;;;;;;;27.95;3.10;;;30.50;96.80;;;;;;1814947;78;21669;-70
2022/08/11 09:16:54;;;;;;;4.10;2.00;;;30.50;97.10;;;;;;1822133;78;21172;-70
2022/08/11 09:19:27;;;;;;;4.42;1.98;;;30.40;97.10;;;;;;1839558;77;21589;-69
2022/08/11 09:27:06;;;;;;;5.12;1.80;;;30.40;97.20;;;;;;1792782;78;21650;-69
2022/08/11 09:29:39;;;;;;;4.90;2.00;;;30.40;97.00;;;;;;1817355;78;21143;-69
2022/08/11 09:32:11;;;;;;;5.62;1.87;;;30.40;96.90;;;;;;1823468;77;21178;-70
2022/08/11 09:34:43;;;;;;;6.78;1.90;;;30.40;97.20;;;;;;1765974;81;22409;-69
2022/08/11 09:42:22;;;;;;;5.30;2.33;;;30.40;97.00;;;;;;1790169;80;21522;-70
2022/08/11 09:44:53;;;;;;;5.33;2.12;;;30.40;97.60;;;;;;1792196;78;21128;-70
2022/08/11 09:47:27;;;;;;;5.65;2.70;;;30.30;97.50;;;;;;1808408;77;21147;-70
2022/08/11 09:50:00;;;;;;;7.28;1.72;;;30.30;97.40;;;;;;1835062;77;21186;-70
2022/08/11 09:52:33;;;;;;;4.30;1.90;;;30.30;97.00;;;;;;1791067;78;21208;-70
2022/08/11 09:55:09;;;;;;;4.80;1.72;;;30.30;97.20;;;;;;1805997;78;21131;-70
2022/08/11 10:00:14;;;;;;;5.40;1.75;;;30.30;97.30;;;;;;1765183;80;21209;-70
2022/08/11 10:02:47;;;;;;;3.70;2.05;;;30.30;96.90;;;;;;1809604;78;21095;-71
2022/08/11 10:07:55;;;;;;;4.97;2.25;;;30.20;97.20;;;;;;1830747;77;21604;-70
2022/08/11 10:10:27;;;;;;;2.98;1.70;;;30.20;97.30;;;;;;1799897;77;21166;-70
2022/08/11 10:13:01;;;;;;;8.13;3.90;;;30.20;97.20;;;;;;1803645;78;21241;-70
2022/08/11 10:15:36;;;;;;;6.95;2.72;;;30.20;97.00;;;;;;1796465;78;21673;-70
2022/08/11 10:20:42;;;;;;;5.65;2.58;;;30.10;97.10;;;;;;1808776;79;21180;-69
2022/08/11 10:28:20;;;;;;;4.78;2.35;;;30.00;97.00;;;;;;1832117;76;21582;-69
2022/08/11 10:36:07;;;;;;;6.65;2.15;;;29.90;97.30;;;;;;1826532;78;21110;-69
2022/08/11 10:38:39;;;;;;;6.92;2.42;;;29.90;97.30;;;;;;1834806;76;21581;-70
2022/08/11 10:43:43;;;;;;;3.72;1.80;;;29.80;97.60;;;;;;1828089;78;21187;-69
2022/08/11 10:48:50;;;;;;;5.62;2.00;;;29.80;98.00;;;;;;1829340;78;21192;-69
2022/08/11 10:59:08;;;;;;;5.20;2.10;;;29.70;97.90;;;;;;1831271;78;21752;-69
2022/08/11 11:01:41;;;;;;;7.90;2.27;;;29.60;97.60;;;;;;1831788;78;21184;-69
2022/08/11 11:04:14;;;;;;;5.37;2.08;;;29.60;97.80;;;;;;1834288;78;21134;-69
2022/08/11 11:06:47;;;;;;;5.42;2.02;;;29.60;98.00;;;;;;1832603;78;21125;-69
2022/08/11 11:09:21;;;;;;;5.92;2.22;;;29.60;97.90;;;;;;1814125;79;21121;-69
2022/08/11 11:19:40;;;;;;;5.15;2.00;;;29.50;98.10;;;;;;1825194;77;21160;-70
2022/08/11 11:24:50;;;;;;;5.33;2.00;;;29.50;98.20;;;;;;1846762;77;21226;-70
2022/08/11 11:27:24;;;;;;;5.50;2.17;;;29.50;98.30;;;;;;1846588;77;21254;-69
2022/08/11 11:29:58;;;;;;;6.25;2.65;;;29.40;98.40;;;;;;1847789;77;21110;-69
2022/08/11 11:32:32;;;;;;;9.25;2.10;;;29.40;98.60;;;;;;1851614;77;21164;-69
2022/08/11 11:35:07;;;;;;;7.12;2.58;;;29.40;98.50;;;;;;1851479;77;21546;-70
2022/08/11 11:37:41;;;;;;;6.30;2.35;;;29.40;98.70;;;;;;1846755;77;21230;-69
2022/08/11 11:40:20;;;;;;;11.38;2.22;;;29.30;98.70;;;;;;1841618;78;21221;-69
2022/08/11 11:42:52;;;;;;;7.53;3.10;;;29.30;98.80;;;;;;1847664;77;21200;-69
2022/08/11 11:45:26;;;;;;;6.25;2.55;;;29.30;98.90;;;;;;1851884;77;21074;-70
2022/08/11 11:48:00;;;;;;;7.30;2.55;;;29.30;99.00;;;;;;1848417;76;21170;-69
2022/08/11 11:50:34;;;;;;;5.28;2.95;;;29.20;99.00;;;;;;1848863;77;22403;-69
2022/08/11 11:53:08;;;;;;;4.28;2.52;;;29.20;99.60;;;;;;1851946;77;21180;-69
2022/08/11 11:55:41;;;;;;;8.90;2.20;;;29.20;99.20;;;;;;1851943;77;21688;-70
2022/08/11 12:03:25;;;;;;;5.55;2.65;;;29.10;99.40;;;;;;1830492;77;21668;-70
2022/08/11 12:05:57;;;;;;;7.92;2.67;;;29.10;99.40;;;;;;1855382;77;21157;-71
2022/08/11 12:08:30;;;;;;;6.67;2.08;;;29.10;99.50;;;;;;1829366;78;21150;-70
2022/08/11 12:13:41;;;;;;;5.95;2.87;;;29.10;99.50;;;;;;1801547;78;21098;-70
2022/08/11 12:16:13;;;;;;;6.95;2.75;;;29.00;99.50;;;;;;1829309;78;21270;-69
2022/08/11 12:18:49;;;;;;;5.87;2.55;;;29.00;99.50;;;;;;1793282;79;21567;-68
2022/08/11 12:21:23;;;;;;;7.00;3.02;;;29.00;99.40;;;;;;1824145;77;21109;-69
2022/08/11 12:29:09;;;;;;;6.25;2.72;;;29.00;99.60;;;;;;1829802;77;21667;-68
2022/08/11 12:31:42;;;;;;;6.20;2.80;;;29.00;99.60;;;;;;1828673;78;21572;-70
2022/08/11 12:34:17;;;;;;;5.75;2.45;;;29.00;99.50;;;;;;1831453;77;21212;-69
2022/08/11 12:36:51;;;;;;;6.17;2.75;;;29.00;99.50;;;;;;1831740;78;21598;-70
2022/08/11 12:47:09;;;;;;;6.35;2.98;;;29.00;99.50;;;;;;1855492;76;21475;-69
2022/08/11 12:52:19;;;;;;;5.97;2.52;;;28.90;99.80;;;;;;1828355;77;21889;-70
2022/08/11 12:54:55;;;;;;;7.60;2.85;;;28.90;99.40;;;;;;1831905;77;21623;-68
2022/08/11 13:05:14;;;;;;;6.95;2.60;;;28.90;99.30;;;;;;1864187;77;21158;-69
2022/08/11 13:07:47;;;;;;;6.60;2.50;;;28.90;99.30;;;;;;1867383;77;21130;-69
2022/08/11 13:12:54;;;;;;;6.37;2.72;;;28.90;99.20;;;;;;1851724;77;21171;-69
2022/08/11 13:15:27;;;;;;;7.67;2.80;;;28.90;99.00;;;;;;1854044;77;21149;-70
2022/08/11 13:18:00;;;;;;;8.40;2.70;;;29.00;99.10;;;;;;1849521;76;21190;-70
2022/08/11 13:20:33;;;;;;;4.55;2.25;;;28.90;98.90;;;;;;1854391;76;21079;-69
2022/08/11 13:23:06;;;;;;;8.13;2.80;;;28.90;99.00;;;;;;1850835;76;21138;-69
2022/08/11 13:25:39;;;;;;;10.30;3.12;;;28.90;98.70;;;;;;1840229;77;21208;-69
2022/08/11 13:28:12;;;;;;;9.68;3.47;;;28.90;99.40;;;;;;1850126;77;21103;-69
2022/08/11 13:33:19;;;;;;;10.30;3.10;;;28.90;98.90;;;;;;1854885;76;21619;-69
2022/08/11 13:35:54;;;;;;;8.15;4.12;;;28.90;99.10;;;;;;1876068;76;21242;-69
2022/08/11 13:38:31;;;;;;;7.83;3.80;;;28.90;99.00;;;;;;1885630;76;21516;-69
2022/08/11 13:41:36;;;;;;;7.85;3.08;;;28.90;99.00;;;;;;1868957;76;21884;-69
2022/08/11 13:43:40;;;;;;;7.05;3.02;;;28.90;99.10;;;;;;1855468;77;21206;-70
2022/08/11 13:46:19;;;;;;;7.40;2.80;;;28.80;99.10;;;;;;1868075;77;21100;-69
2022/08/11 13:48:49;;;;;;;7.25;2.70;;;28.80;99.20;;;;;;1877813;76;21641;-70
2022/08/11 13:51:31;;;;;;;7.78;3.30;;;28.80;99.20;;;;;;1864637;76;21159;-82
2022/08/11 13:54:00;;;;;;;7.40;3.33;;;28.80;99.20;;;;;;1859951;75;21751;-82
2022/08/11 13:56:41;;;;;;;10.93;3.33;;;28.80;99.40;;;;;;1848762;76;21134;-83
2022/08/11 13:59:19;;;;;;;9.65;4.00;;;28.80;99.40;;;;;;1849188;76;21228;-82
2022/08/11 14:01:54;;;;;;;6.30;3.60;;;28.80;99.40;;;;;;1860186;76;21097;-82
2022/08/11 14:04:29;;;;;;;7.22;2.98;;;28.70;99.40;;;;;;1876446;76;21105;-82
2022/08/11 14:07:03;;;;;;;5.03;2.80;;;28.70;99.50;;;;;;1856347;77;21389;-83
2022/08/11 14:09:40;;;;;;;5.62;2.40;;;28.70;99.60;;;;;;1856853;77;21625;-82
2022/08/11 14:14:50;;;;;;;6.58;2.30;;;28.70;99.70;;;;;;1846826;77;21107;-81
2022/08/11 14:17:23;;;;;;;6.17;2.35;;;28.70;99.70;;;;;;1848412;77;21117;-83
2022/08/11 14:19:58;;;;;;;6.53;2.62;;;28.60;99.60;;;;;;1825991;77;21264;-81
2022/08/11 14:22:32;;;;;;;7.25;2.92;;;28.60;99.70;;;;;;1831816;76;21090;-84
2022/08/11 14:25:07;;;;;;;8.38;3.05;;;28.70;99.80;;;;;;1822246;78;21782;-83
2022/08/11 14:27:41;;;;;;;8.20;2.87;;;28.60;99.80;;;;;;1820331;78;21163;-82
2022/08/11 14:32:50;;;;;;;6.83;2.95;;;28.70;99.90;;;;;;1821625;78;21163;-82
2022/08/11 14:35:21;;;;;;;7.87;2.52;;;28.60;99.90;;;;;;1820205;78;21257;-81
2022/08/11 14:37:53;;;;;;;5.80;2.80;;;28.60;99.90;;;;;;1849173;77;21815;-82
2022/08/11 14:48:10;;;;;;;10.18;3.47;;;28.60;99.90;;;;;;1830888;77;21123;-83
2022/08/11 14:50:41;;;;;;;7.80;3.02;;;28.60;99.90;;;;;;1858288;76;21090;-82
2022/08/11 14:53:14;;;;;;;12.75;3.60;;;28.60;99.90;;;;;;1846516;77;21165;-83
2022/08/11 14:58:27;;;;;;;8.08;3.10;;;28.60;99.90;;;;;;1829081;77;21543;-81
2022/08/11 15:01:02;;;;;;;8.85;3.15;;;28.60;99.90;;;;;;1787242;80;21238;-81
2022/08/11 15:03:34;;;;;;;9.43;4.00;;;28.50;99.90;;;;;;1821585;78;21224;-81
2022/08/11 15:06:06;;;;;;;10.32;4.40;;;28.60;99.90;;;;;;1840502;77;21168;-81
2022/08/11 15:13:49;;;;;;;10.75;4.35;;;28.50;99.90;;;;;;1798298;78;21197;-82
2022/08/11 15:18:55;;;;;;;10.93;4.80;;;28.50;99.90;;;;;;1850629;76;21225;-82
2022/08/11 15:24:41;;;;;;;7.72;4.22;;;28.50;99.90;;;;;;1845378;77;21663;-81
2022/08/11 15:39:28;;;;;;;10.55;5.08;;;28.40;99.90;;;;;;1801494;78;21087;-81
2022/08/11 15:47:13;;;;;;;13.13;6.47;;;28.30;99.90;;;;;;1851016;77;21789;-83
2022/08/11 15:49:47;;;;;;;15.25;5.78;;;28.30;99.90;;;;;;1851803;77;21246;-82
2022/08/11 15:52:22;;;;;;;14.25;5.92;;;28.30;99.90;;;;;;1846528;77;21141;-82
2022/08/11 15:55:01;;;;;;;15.32;6.45;;;28.30;99.90;;;;;;1846550;77;21621;-81
2022/08/11 16:05:23;;;;;;;10.55;6.00;;;28.30;99.90;;;;;;1837618;77;21119;-82
2022/08/11 16:08:00;;;;;;;13.13;5.72;;;28.20;99.90;;;;;;1847856;77;21150;-83
2022/08/11 16:10:32;;;;;;;15.65;5.95;;;28.20;99.90;;;;;;1850436;77;21091;-83
2022/08/11 16:18:39;;;;;;;11.97;6.03;;;28.20;99.90;;;;;;1826032;77;21189;-82
2022/08/11 16:21:09;;;;;;;12.60;6.08;;;28.20;99.90;;;;;;1829680;77;21171;-83
2022/08/11 16:23:45;;;;;;;12.70;5.80;;;28.20;99.90;;;;;;1835022;77;21240;-82
2022/08/11 16:26:18;;;;;;;14.90;5.85;;;28.20;99.90;;;;;;1842190;77;21190;-82
2022/08/11 16:28:57;;;;;;;9.23;4.87;;;28.20;99.90;;;;;;1821384;77;21138;-83
2022/08/11 16:31:27;;;;;;;10.23;5.70;;;28.10;99.90;;;;;;1826993;77;21662;-82
2022/08/11 16:34:02;;;;;;;10.72;5.53;;;28.10;99.90;;;;;;1831982;78;21672;-82
2022/08/11 16:39:08;;;;;;;10.45;5.42;;;28.10;99.90;;;;;;1825083;77;21220;-82
2022/08/11 16:47:00;;;;;;;10.60;5.13;;;28.00;99.90;;;;;;1845701;76;21224;-82
2022/08/11 16:49:26;;;;;;;8.83;5.60;;;28.00;99.90;;;;;;1844498;77;21157;-82
2022/08/11 16:52:02;;;;;;;11.22;5.40;;;28.00;99.90;;;;;;1797156;77;21158;-82
2022/08/11 16:54:33;;;;;;;12.70;5.53;;;28.00;99.90;;;;;;1854904;77;21155;-82
2022/08/11 16:59:40;;;;;;;10.55;5.33;;;27.90;99.90;;;;;;1853262;77;21144;-82
2022/08/11 17:13:07;;;;;;;10.90;5.40;;;27.90;99.90;;;;;;1858859;77;21537;-82
2022/08/11 17:16:05;;;;;;;10.85;5.35;;;27.80;99.90;;;;;;1818259;78;21164;-82
2022/08/11 17:17:41;;;;;;;12.23;5.58;;;27.80;99.90;;;;;;1807118;78;21113;-80
2022/08/11 17:20:14;;;;;;;11.97;5.65;;;27.80;99.90;;;;;;1824331;77;21076;-82
2022/08/11 17:25:23;;;;;;;9.98;5.20;;;27.80;99.90;;;;;;1848659;76;21088;-82
2022/08/11 17:27:55;;;;;;;10.75;5.03;;;27.80;99.90;;;;;;1827042;78;21097;-81
2022/08/11 17:35:27;;;;;;;13.38;5.45;;;27.70;99.90;;;;;;1826079;77;21110;-81
2022/08/11 17:35:37;;;;;;;14.13;5.35;;;27.70;99.90;;;;;;1809602;79;21666;-81
2022/08/11 17:38:11;;;;;;;10.32;5.40;;;27.70;99.90;;;;;;1814546;77;21189;-82
2022/08/11 17:48:25;;;;;;;14.25;5.28;;;27.70;99.90;;;;;;1813342;78;21121;-81
2022/08/11 17:50:58;;;;;;;10.88;4.70;;;27.70;99.90;;;;;;1809461;79;21653;-80
2022/08/11 18:01:14;;;;;;;11.48;5.15;;;27.70;99.90;;;;;;1828342;77;21120;-82
2022/08/11 18:03:45;;;;;;;11.18;4.62;;;27.70;99.90;;;;;;1828173;77;21080;-81
2022/08/11 18:06:18;;;;;;;13.40;5.65;;;27.60;99.90;;;;;;1820969;77;21482;-82
